Time;durP1;ratioP1;P1;durP2;ratioP2;P2;SDS_P1;SDS_P2;PMS_P1;PMS_P2;Temp;Humidity;BMP_temperature;BMP_pressure;BME280_temperature;BME280_humidity;BME280_pressure;Samples;Min_cycle;Max_cycle;Signal;HPM_P1;HPM_P2
2023/03/17 00:00:16;;;;;;;;;;;;;;;;;;5076924;28;7086;-68
2023/03/17 00:02:44;;;;;;;;;;;;;;;;;;5080794;28;6973;-64
2023/03/17 00:05:26;;;;;;;;;;;;;;;;;;5080872;28;7321;-68
2023/03/17 00:07:54;;;;;;;;;;;;;;;;;;5076606;28;6974;-68
2023/03/17 00:10:31;;;;;;;;;;;;;;;;;;5077835;28;7119;-68
2023/03/17 00:13:03;;;;;;;;;;;;;;;;;;5076599;28;7127;-68
2023/03/17 00:15:41;;;;;;;;;;;;;;;;;;5077102;28;7178;-68
2023/03/17 00:18:13;;;;;;;;;;;;;;;;;;5077820;28;7589;-68
2023/03/17 00:23:46;;;;;;;;;;;;;;;;;;5076234;28;6681;-68
2023/03/17 00:29:15;;;;;;;;;;;;;;;;;;5076252;28;6949;-68
2023/03/17 00:31:50;;;;;;;;;;;;;;;;;;5077635;28;7186;-68
2023/03/17 00:34:35;;;;;;;;;;;;;;;;;;5076266;28;6998;-68
2023/03/17 00:37:30;;;;;;;;;;;;;;;;;;5077904;28;7251;-68
2023/03/17 00:39:55;;;;;;;;;;;;;;;;;;5081049;28;6918;-67
2023/03/17 00:42:22;;;;;;;;;;;;;;;;;;5076054;28;7252;-67
2023/03/17 00:44:59;;;;;;;;;;;;;;;;;;5077249;28;6894;-68
2023/03/17 00:47:25;;;;;;;;;;;;;;;;;;5075849;28;7004;-68
2023/03/17 00:49:53;;;;;;;;;;;;;;;;;;5079760;28;7317;-68
2023/03/17 00:55:14;;;;;;;;;;;;;;;;;;5076584;28;7202;-68
2023/03/17 00:57:57;;;;;;;;;;;;;;;;;;5075640;28;7199;-68
2023/03/17 01:00:25;;;;;;;;;;;;;;;;;;5078925;28;7111;-67
2023/03/17 01:02:56;;;;;;;;;;;;;;;;;;5076567;28;6947;-68
2023/03/17 01:05:23;;;;;;;;;;;;;;;;;;5079616;28;7078;-68
2023/03/17 01:07:52;;;;;;;;;;;;;;;;;;5078510;28;7391;-68
2023/03/17 01:10:21;;;;;;;;;;;;;;;;;;5076745;28;6893;-68
2023/03/17 01:12:48;;;;;;;;;;;;;;;;;;5075975;28;7128;-68
2023/03/17 01:15:14;;;;;;;;;;;;;;;;;;5075598;28;8207;-68
2023/03/17 01:17:46;;;;;;;;;;;;;;;;;;5077868;28;6916;-68
2023/03/17 01:20:15;;;;;;;;;;;;;;;;;;5040852;28;6821;-68
2023/03/17 01:22:41;;;;;;;;;;;;;;;;;;5075379;28;7101;-67
2023/03/17 01:25:08;;;;;;;;;;;;;;;;;;5075374;28;7217;-67
2023/03/17 01:27:35;;;;;;;;;;;;;;;;;;5075909;28;7187;-68
2023/03/17 01:30:05;;;;;;;;;;;;;;;;;;5074939;28;7277;-67
2023/03/17 01:32:31;;;;;;;;;;;;;;;;;;5075045;28;7033;-68
2023/03/17 01:38:21;;;;;;;;;;;;;;;;;;5075427;28;6832;-67
2023/03/17 01:40:48;;;;;;;;;;;;;;;;;;5076090;28;7047;-68
2023/03/17 01:46:17;;;;;;;;;;;;;;;;;;5075365;28;6897;-71
2023/03/17 01:49:08;;;;;;;;;;;;;;;;;;5076111;28;7083;-71
2023/03/17 01:51:45;;;;;;;;;;;;;;;;;;5077822;28;7252;-71
2023/03/17 01:54:16;;;;;;;;;;;;;;;;;;5075314;28;7480;-71
2023/03/17 02:02:54;;;;;;;;;;;;;;;;;;5075158;28;6932;-71
2023/03/17 02:05:25;;;;;;;;;;;;;;;;;;5076550;28;7159;-71
2023/03/17 02:07:53;;;;;;;;;;;;;;;;;;5076388;28;7064;-71
2023/03/17 02:10:21;;;;;;;;;;;;;;;;;;5060029;28;8716;-71
2023/03/17 02:12:50;;;;;;;;;;;;;;;;;;5074643;28;7183;-71
2023/03/17 02:18:29;;;;;;;;;;;;;;;;;;5074482;28;6696;-71
2023/03/17 02:21:14;;;;;;;;;;;;;;;;;;5075199;28;7153;-71
2023/03/17 02:23:48;;;;;;;;;;;;;;;;;;5075381;28;7246;-71
2023/03/17 02:26:18;;;;;;;;;;;;;;;;;;5077616;28;7092;-71
2023/03/17 02:28:45;;;;;;;;;;;;;;;;;;5075124;28;7428;-71
2023/03/17 02:31:11;;;;;;;;;;;;;;;;;;5074695;28;7579;-71
2023/03/17 02:36:49;;;;;;;;;;;;;;;;;;5075174;28;7104;-71
2023/03/17 02:39:15;;;;;;;;;;;;;;;;;;5075923;28;7037;-71
2023/03/17 02:41:41;;;;;;;;;;;;;;;;;;5072327;28;6929;-71
2023/03/17 02:44:08;;;;;;;;;;;;;;;;;;5074606;28;7086;-71
2023/03/17 02:46:34;;;;;;;;;;;;;;;;;;5075937;28;7286;-72
2023/03/17 02:49:01;;;;;;;;;;;;;;;;;;5074284;28;7154;-72
2023/03/17 02:51:34;;;;;;;;;;;;;;;;;;5077697;28;7016;-72
2023/03/17 02:53:59;;;;;;;;;;;;;;;;;;5075114;28;7247;-72
2023/03/17 02:56:38;;;;;;;;;;;;;;;;;;5073789;28;7106;-71
2023/03/17 02:59:04;;;;;;;;;;;;;;;;;;5074002;28;6916;-72
2023/03/17 03:01:30;;;;;;;;;;;;;;;;;;5077497;28;7526;-72
2023/03/17 03:04:29;;;;;;;;;;;;;;;;;;5074201;28;7047;-72
2023/03/17 03:06:56;;;;;;;;;;;;;;;;;;5073966;28;7122;-71
2023/03/17 03:12:32;;;;;;;;;;;;;;;;;;5073963;28;6684;-71
2023/03/17 03:14:57;;;;;;;;;;;;;;;;;;5074735;28;7355;-71
2023/03/17 03:17:23;;;;;;;;;;;;;;;;;;5074901;28;7356;-71
2023/03/17 03:19:51;;;;;;;;;;;;;;;;;;5078242;28;7036;-71
2023/03/17 03:22:17;;;;;;;;;;;;;;;;;;5078578;28;6980;-71
2023/03/17 03:24:43;;;;;;;;;;;;;;;;;;5079726;28;7192;-71
2023/03/17 03:33:17;;;;;;;;;;;;;;;;;;5077662;28;6923;-71
2023/03/17 03:35:55;;;;;;;;;;;;;;;;;;5080784;28;7080;-71
2023/03/17 03:38:23;;;;;;;;;;;;;;;;;;5078075;28;7190;-71
2023/03/17 03:40:57;;;;;;;;;;;;;;;;;;5079183;28;7402;-71
2023/03/17 03:43:23;;;;;;;;;;;;;;;;;;5076692;28;6917;-71
2023/03/17 03:45:49;;;;;;;;;;;;;;;;;;5077191;28;7079;-71
2023/03/17 03:48:31;;;;;;;;;;;;;;;;;;5077102;28;7021;-71
2023/03/17 03:50:58;;;;;;;;;;;;;;;;;;5077483;28;7120;-71
2023/03/17 03:53:24;;;;;;;;;;;;;;;;;;5079307;28;7128;-71
2023/03/17 03:55:49;;;;;;;;;;;;;;;;;;5078771;28;6897;-71
2023/03/17 03:58:15;;;;;;;;;;;;;;;;;;5076789;28;7094;-71
2023/03/17 04:00:40;;;;;;;;;;;;;;;;;;5076826;28;7043;-71
2023/03/17 04:03:06;;;;;;;;;;;;;;;;;;5076922;28;7091;-71
2023/03/17 04:05:32;;;;;;;;;;;;;;;;;;5077935;28;7208;-71
2023/03/17 04:08:27;;;;;;;;;;;;;;;;;;5069709;28;7387;-72
2023/03/17 04:10:52;;;;;;;;;;;;;;;;;;5056665;28;6943;-72
2023/03/17 04:13:18;;;;;;;;;;;;;;;;;;5056721;28;6914;-72
2023/03/17 04:16:02;;;;;;;;;;;;;;;;;;5056990;28;7886;-72
2023/03/17 04:18:29;;;;;;;;;;;;;;;;;;5055940;28;7030;-72
2023/03/17 04:24:00;;;;;;;;;;;;;;;;;;5076157;28;6979;-72
2023/03/17 04:26:25;;;;;;;;;;;;;;;;;;5074749;28;7056;-72
2023/03/17 04:32:16;;;;;;;;;;;;;;;;;;5056773;28;7037;-72
2023/03/17 04:34:42;;;;;;;;;;;;;;;;;;5056307;28;7185;-72
2023/03/17 04:37:08;;;;;;;;;;;;;;;;;;5056030;28;7391;-72
2023/03/17 04:39:40;;;;;;;;;;;;;;;;;;5056929;28;7216;-72
2023/03/17 04:42:08;;;;;;;;;;;;;;;;;;5058072;28;7073;-72
2023/03/17 04:44:34;;;;;;;;;;;;;;;;;;5055911;28;6977;-72
2023/03/17 04:46:59;;;;;;;;;;;;;;;;;;5055890;28;7173;-72
2023/03/17 04:49:26;;;;;;;;;;;;;;;;;;5055977;28;7107;-72
2023/03/17 04:52:06;;;;;;;;;;;;;;;;;;5071348;28;6818;-72
2023/03/17 04:54:32;;;;;;;;;;;;;;;;;;5068312;28;7035;-72
2023/03/17 04:56:57;;;;;;;;;;;;;;;;;;5064047;28;7032;-67
2023/03/17 04:59:27;;;;;;;;;;;;;;;;;;5064201;28;6976;-67
2023/03/17 05:01:52;;;;;;;;;;;;;;;;;;5057077;28;7161;-67
2023/03/17 05:04:19;;;;;;;;;;;;;;;;;;5068693;28;7146;-66
2023/03/17 05:06:45;;;;;;;;;;;;;;;;;;5071251;28;7098;-67
2023/03/17 05:09:27;;;;;;;;;;;;;;;;;;5060696;28;7049;-67
2023/03/17 05:11:53;;;;;;;;;;;;;;;;;;5067546;28;7358;-67
2023/03/17 05:17:21;;;;;;;;;;;;;;;;;;5075717;28;6966;-67
2023/03/17 05:19:47;;;;;;;;;;;;;;;;;;5076097;28;6795;-67
2023/03/17 05:25:04;;;;;;;;;;;;;;;;;;5056065;28;6926;-67
2023/03/17 05:27:31;;;;;;;;;;;;;;;;;;5074154;28;6931;-67
2023/03/17 05:30:02;;;;;;;;;;;;;;;;;;5076221;28;7559;-67
2023/03/17 05:32:58;;;;;;;;;;;;;;;;;;5061355;28;7189;-67
2023/03/17 05:35:24;;;;;;;;;;;;;;;;;;5061558;28;7174;-71
2023/03/17 05:38:02;;;;;;;;;;;;;;;;;;5073852;28;7061;-71
2023/03/17 05:40:28;;;;;;;;;;;;;;;;;;5067094;28;7139;-71
2023/03/17 05:42:53;;;;;;;;;;;;;;;;;;5067880;28;7074;-71
2023/03/17 05:45:36;;;;;;;;;;;;;;;;;;5059056;28;7030;-71
2023/03/17 05:48:03;;;;;;;;;;;;;;;;;;5054641;28;6813;-71
2023/03/17 05:50:31;;;;;;;;;;;;;;;;;;5057680;28;6949;-71
2023/03/17 05:52:56;;;;;;;;;;;;;;;;;;5054773;28;7227;-71
2023/03/17 05:55:22;;;;;;;;;;;;;;;;;;5054807;28;7033;-71
2023/03/17 05:57:52;;;;;;;;;;;;;;;;;;5058395;28;7126;-72
2023/03/17 06:00:20;;;;;;;;;;;;;;;;;;5054160;28;7400;-72
2023/03/17 06:02:45;;;;;;;;;;;;;;;;;;5054445;28;7309;-72
2023/03/17 06:05:12;;;;;;;;;;;;;;;;;;5054494;28;7038;-72
2023/03/17 06:07:47;;;;;;;;;;;;;;;;;;5054367;28;7024;-72
2023/03/17 06:10:12;;;;;;;;;;;;;;;;;;5054640;28;6968;-72
2023/03/17 06:12:38;;;;;;;;;;;;;;;;;;5054629;28;7484;-72
2023/03/17 06:15:18;;;;;;;;;;;;;;;;;;5056809;28;7335;-72
2023/03/17 06:17:46;;;;;;;;;;;;;;;;;;5054563;28;7603;-71
2023/03/17 06:20:24;;;;;;;;;;;;;;;;;;5054641;28;6827;-68
2023/03/17 06:22:49;;;;;;;;;;;;;;;;;;5054538;28;7572;-71
2023/03/17 06:28:40;;;;;;;;;;;;;;;;;;5055280;28;6675;-67
2023/03/17 06:31:07;;;;;;;;;;;;;;;;;;5054976;28;6965;-68
2023/03/17 06:33:52;;;;;;;;;;;;;;;;;;5054580;28;7027;-68
2023/03/17 06:36:17;;;;;;;;;;;;;;;;;;5054514;28;7043;-68
2023/03/17 06:38:51;;;;;;;;;;;;;;;;;;5054931;28;7148;-69
2023/03/17 06:41:16;;;;;;;;;;;;;;;;;;5054141;28;7112;-69
2023/03/17 06:43:47;;;;;;;;;;;;;;;;;;5054429;28;6935;-69
2023/03/17 06:46:12;;;;;;;;;;;;;;;;;;5054179;28;7016;-69
2023/03/17 06:54:43;;;;;;;;;;;;;;;;;;5058151;28;6915;-69
2023/03/17 06:57:41;;;;;;;;;;;;;;;;;;5057937;28;7141;-69
2023/03/17 07:00:08;;;;;;;;;;;;;;;;;;5057557;28;8522;-68
2023/03/17 07:02:33;;;;;;;;;;;;;;;;;;5191915;23;7961;-67
2023/03/17 07:04:59;;;;;;;;;;;;;;;;;;5038514;28;7250;-66
2023/03/17 07:07:30;;;;;;;;;;;;;;;;;;5037873;28;7181;-67
2023/03/17 07:09:57;;;;;;;;;;;;;;;;;;5107396;23;7132;-67
2023/03/17 07:12:23;;;;;;;;;;;;;;;;;;5078310;28;7143;-67
2023/03/17 07:14:50;;;;;;;;;;;;;;;;;;5078665;28;7177;-67
2023/03/17 07:17:17;;;;;;;;;;;;;;;;;;5080242;28;7228;-67
2023/03/17 07:19:47;;;;;;;;;;;;;;;;;;5081376;28;7202;-67
2023/03/17 07:22:13;;;;;;;;;;;;;;;;;;5081846;28;6977;-67
2023/03/17 07:24:48;;;;;;;;;;;;;;;;;;5081805;28;7367;-67
2023/03/17 07:27:15;;;;;;;;;;;;;;;;;;5077531;28;7166;-67
2023/03/17 07:29:40;;;;;;;;;;;;;;;;;;5078212;28;6962;-67
2023/03/17 07:32:14;;;;;;;;;;;;;;;;;;5079677;28;7393;-67
2023/03/17 07:34:40;;;;;;;;;;;;;;;;;;5077367;28;7223;-67
2023/03/17 07:37:06;;;;;;;;;;;;;;;;;;5076986;28;7037;-67
2023/03/17 07:39:33;;;;;;;;;;;;;;;;;;5082810;28;7306;-67
2023/03/17 07:41:59;;;;;;;;;;;;;;;;;;5077238;28;7107;-67
2023/03/17 07:44:40;;;;;;;;;;;;;;;;;;5079487;28;6971;-66
2023/03/17 07:47:07;;;;;;;;;;;;;;;;;;5082193;28;7293;-67
2023/03/17 07:49:32;;;;;;;;;;;;;;;;;;5078414;28;7083;-67
2023/03/17 07:51:59;;;;;;;;;;;;;;;;;;5078459;28;7127;-68
2023/03/17 07:54:26;;;;;;;;;;;;;;;;;;5077132;28;6936;-67
2023/03/17 07:57:01;;;;;;;;;;;;;;;;;;5078729;28;7108;-67
2023/03/17 07:59:27;;;;;;;;;;;;;;;;;;5081999;28;7186;-67
2023/03/17 08:01:56;;;;;;;;;;;;;;;;;;5081192;28;7083;-67
2023/03/17 08:04:23;;;;;;;;;;;;;;;;;;5078100;28;6857;-67
2023/03/17 08:06:51;;;;;;;;;;;;;;;;;;5066586;28;7156;-67
2023/03/17 08:15:24;;;;;;;;;;;;;;;;;;5057186;28;6735;-67
2023/03/17 08:17:50;;;;;;;;;;;;;;;;;;5057222;28;7256;-67
2023/03/17 08:23:20;;;;;;;;;;;;;;;;;;5058328;28;6696;-70
2023/03/17 08:29:01;;;;;;;;;;;;;;;;;;5060577;28;6922;-70
2023/03/17 08:31:27;;;;;;;;;;;;;;;;;;5062024;28;7091;-70
2023/03/17 08:33:55;;;;;;;;;;;;;;;;;;5059764;28;7417;-67
2023/03/17 08:36:21;;;;;;;;;;;;;;;;;;5054875;28;7102;-68
2023/03/17 08:38:47;;;;;;;;;;;;;;;;;;5057300;28;7210;-67
2023/03/17 08:41:46;;;;;;;;;;;;;;;;;;5056167;28;7001;-67
2023/03/17 08:44:13;;;;;;;;;;;;;;;;;;5057015;28;7152;-67
2023/03/17 08:46:40;;;;;;;;;;;;;;;;;;5056036;28;7136;-67
2023/03/17 08:52:04;;;;;;;;;;;;;;;;;;5056242;28;6974;-68
2023/03/17 08:54:49;;;;;;;;;;;;;;;;;;5057538;28;7152;-67
2023/03/17 08:57:14;;;;;;;;;;;;;;;;;;5055585;28;7047;-67
2023/03/17 08:59:50;;;;;;;;;;;;;;;;;;5055468;28;8287;-67
2023/03/17 09:02:15;;;;;;;;;;;;;;;;;;5058397;28;7165;-67
2023/03/17 09:04:59;;;;;;;;;;;;;;;;;;5055716;28;7265;-68
2023/03/17 09:07:25;;;;;;;;;;;;;;;;;;5055340;28;7227;-68
2023/03/17 09:09:51;;;;;;;;;;;;;;;;;;5055211;28;7140;-67
2023/03/17 09:12:30;;;;;;;;;;;;;;;;;;5055264;28;6973;-68
2023/03/17 09:14:55;;;;;;;;;;;;;;;;;;5073079;28;7168;-68
2023/03/17 09:17:42;;;;;;;;;;;;;;;;;;5075305;28;7338;-68
2023/03/17 09:20:10;;;;;;;;;;;;;;;;;;5060107;28;6979;-68
2023/03/17 09:22:36;;;;;;;;;;;;;;;;;;5058140;28;7049;-68
2023/03/17 09:25:02;;;;;;;;;;;;;;;;;;5055132;28;7943;-68
2023/03/17 09:27:35;;;;;;;;;;;;;;;;;;5056758;28;7070;-68
2023/03/17 09:30:00;;;;;;;;;;;;;;;;;;5055283;28;6964;-67
2023/03/17 09:32:29;;;;;;;;;;;;;;;;;;5064666;28;7417;-67
2023/03/17 09:34:55;;;;;;;;;;;;;;;;;;5074841;28;7008;-67
2023/03/17 09:37:51;;;;;;;;;;;;;;;;;;5074542;28;7023;-68
2023/03/17 09:40:20;;;;;;;;;;;;;;;;;;5073031;28;9060;-67
2023/03/17 09:43:04;;;;;;;;;;;;;;;;;;5075076;28;6944;-67
2023/03/17 09:48:37;;;;;;;;;;;;;;;;;;5074922;28;6917;-67
2023/03/17 09:51:16;;;;;;;;;;;;;;;;;;5074513;28;6966;-68
2023/03/17 09:54:01;;;;;;;;;;;;;;;;;;5073732;28;7394;-67
2023/03/17 09:56:30;;;;;;;;;;;;;;;;;;5057808;28;6968;-68
2023/03/17 10:02:22;;;;;;;;;;;;;;;;;;5059833;28;7222;-67
2023/03/17 10:04:48;;;;;;;;;;;;;;;;;;5057081;28;7491;-67
2023/03/17 10:07:17;;;;;;;;;;;;;;;;;;5054754;28;7057;-67
2023/03/17 10:09:49;;;;;;;;;;;;;;;;;;5054083;28;7162;-68
2023/03/17 10:15:45;;;;;;;;;;;;;;;;;;5054274;28;6969;-68
2023/03/17 10:18:12;;;;;;;;;;;;;;;;;;5054615;28;7192;-68
2023/03/17 10:21:01;;;;;;;;;;;;;;;;;;5054235;28;6978;-68
2023/03/17 10:23:31;;;;;;;;;;;;;;;;;;5055044;28;7149;-68
2023/03/17 10:26:03;;;;;;;;;;;;;;;;;;5054338;28;7264;-68
2023/03/17 10:28:31;;;;;;;;;;;;;;;;;;5056568;28;7065;-67
2023/03/17 10:31:36;;;;;;;;;;;;;;;;;;5058233;28;6835;-68
2023/03/17 10:34:38;;;;;;;;;;;;;;;;;;5028124;28;7270;-69
2023/03/17 10:37:04;;;;;;;;;;;;;;;;;;5059424;28;7507;-67
2023/03/17 10:39:30;;;;;;;;;;;;;;;;;;5058065;28;7420;-67
2023/03/17 10:41:58;;;;;;;;;;;;;;;;;;5058443;28;7008;-67
2023/03/17 10:44:35;;;;;;;;;;;;;;;;;;5059119;28;7169;-67
2023/03/17 10:47:01;;;;;;;;;;;;;;;;;;5058362;28;7025;-67
2023/03/17 10:49:34;;;;;;;;;;;;;;;;;;5059365;28;7147;-67
2023/03/17 10:51:59;;;;;;;;;;;;;;;;;;5058325;28;7294;-67
2023/03/17 10:57:21;;;;;;;;;;;;;;;;;;5059786;28;7055;-67
2023/03/17 10:59:52;;;;;;;;;;;;;;;;;;5060641;28;6979;-67
2023/03/17 11:02:26;;;;;;;;;;;;;;;;;;5058875;28;7223;-67
2023/03/17 11:05:12;;;;;;;;;;;;;;;;;;5062603;28;6896;-67
2023/03/17 11:07:52;;;;;;;;;;;;;;;;;;5047054;28;6882;-67
2023/03/17 11:10:33;;;;;;;;;;;;;;;;;;5060554;28;7246;-67
2023/03/17 11:13:00;;;;;;;;;;;;;;;;;;5057912;28;7418;-67
2023/03/17 11:18:42;;;;;;;;;;;;;;;;;;5057492;28;6699;-67
2023/03/17 11:21:16;;;;;;;;;;;;;;;;;;5059711;28;7074;-67
2023/03/17 11:24:07;;;;;;;;;;;;;;;;;;5057422;28;7203;-67
2023/03/17 11:26:41;;;;;;;;;;;;;;;;;;5057504;28;7155;-67
2023/03/17 11:29:16;;;;;;;;;;;;;;;;;;5057641;28;7152;-67
2023/03/17 11:34:48;;;;;;;;;;;;;;;;;;5061145;28;6960;-67
2023/03/17 11:37:19;;;;;;;;;;;;;;;;;;5057800;28;7397;-67
2023/03/17 11:39:51;;;;;;;;;;;;;;;;;;5056137;28;7376;-67
2023/03/17 11:42:25;;;;;;;;;;;;;;;;;;5057230;28;7096;-67
2023/03/17 11:50:52;;;;;;;;;;;;;;;;;;5056874;28;7111;-67
2023/03/17 11:53:36;;;;;;;;;;;;;;;;;;5059163;28;7252;-67
2023/03/17 11:56:21;;;;;;;;;;;;;;;;;;5056547;28;7207;-67
2023/03/17 11:58:53;;;;;;;;;;;;;;;;;;5056533;28;7208;-67
2023/03/17 12:04:34;;;;;;;;;;;;;;;;;;5057044;28;6908;-67
2023/03/17 12:07:10;;;;;;;;;;;;;;;;;;5056721;28;7136;-67
2023/03/17 12:09:41;;;;;;;;;;;;;;;;;;5059892;28;7225;-67
2023/03/17 12:12:17;;;;;;;;;;;;;;;;;;5058084;28;7152;-67
2023/03/17 12:14:47;;;;;;;;;;;;;;;;;;5056564;28;7032;-67
2023/03/17 12:17:39;;;;;;;;;;;;;;;;;;5056592;28;7075;-67
2023/03/17 12:20:11;;;;;;;;;;;;;;;;;;5056360;28;7010;-67
2023/03/17 12:25:58;;;;;;;;;;;;;;;;;;5060150;28;6948;-68
2023/03/17 12:28:32;;;;;;;;;;;;;;;;;;5055013;28;8412;-70
2023/03/17 12:31:05;;;;;;;;;;;;;;;;;;5056167;28;7050;-70
2023/03/17 12:33:52;;;;;;;;;;;;;;;;;;5056187;28;7086;-70
2023/03/17 12:36:20;;;;;;;;;;;;;;;;;;5056068;28;7078;-70
2023/03/17 12:39:15;;;;;;;;;;;;;;;;;;5056118;28;7066;-70
2023/03/17 12:41:41;;;;;;;;;;;;;;;;;;5056150;28;7090;-70
2023/03/17 12:47:03;;;;;;;;;;;;;;;;;;5056896;28;7206;-70
2023/03/17 12:49:53;;;;;;;;;;;;;;;;;;5056796;28;6839;-70
2023/03/17 12:52:37;;;;;;;;;;;;;;;;;;5056418;28;7730;-70
2023/03/17 12:55:21;;;;;;;;;;;;;;;;;;5055861;28;7269;-70
2023/03/17 13:00:56;;;;;;;;;;;;;;;;;;5056168;28;6981;-70
2023/03/17 13:03:24;;;;;;;;;;;;;;;;;;5059618;28;7003;-70
2023/03/17 13:08:52;;;;;;;;;;;;;;;;;;5056362;28;6772;-70
2023/03/17 13:11:17;;;;;;;;;;;;;;;;;;5059854;28;7023;-70
2023/03/17 13:14:07;;;;;;;;;;;;;;;;;;5055373;28;7667;-70
2023/03/17 13:16:36;;;;;;;;;;;;;;;;;;5055169;28;7440;-70
2023/03/17 13:25:11;;;;;;;;;;;;;;;;;;5052305;28;6938;-70
2023/03/17 13:27:37;;;;;;;;;;;;;;;;;;5055143;28;7170;-70
2023/03/17 13:30:21;;;;;;;;;;;;;;;;;;5058297;28;7068;-70
2023/03/17 13:32:55;;;;;;;;;;;;;;;;;;5055085;28;7410;-68
2023/03/17 13:38:11;;;;;;;;;;;;;;;;;;5056896;28;6971;-67
2023/03/17 13:41:04;;;;;;;;;;;;;;;;;;5055268;28;7115;-68
2023/03/17 13:46:32;;;;;;;;;;;;;;;;;;5055207;28;6926;-68
2023/03/17 13:49:15;;;;;;;;;;;;;;;;;;5055042;28;6963;-68
2023/03/17 13:51:42;;;;;;;;;;;;;;;;;;5054533;28;8290;-67
2023/03/17 14:00:13;;;;;;;;;;;;;;;;;;4993577;28;6803;-68
2023/03/17 14:05:46;;;;;;;;;;;;;;;;;;4993479;28;6700;-68
2023/03/17 14:08:32;;;;;;;;;;;;;;;;;;4993256;28;7165;-67
2023/03/17 14:10:59;;;;;;;;;;;;;;;;;;5011571;28;7226;-68
2023/03/17 14:13:47;;;;;;;;;;;;;;;;;;5013449;28;7072;-67
2023/03/17 14:16:17;;;;;;;;;;;;;;;;;;5012711;28;6834;-67
2023/03/17 14:19:07;;;;;;;;;;;;;;;;;;5015731;28;7025;-68
2023/03/17 14:21:33;;;;;;;;;;;;;;;;;;5013611;28;7207;-68
2023/03/17 14:27:15;;;;;;;;;;;;;;;;;;5012819;28;6703;-67
2023/03/17 14:29:44;;;;;;;;;;;;;;;;;;5015422;28;7448;-68
2023/03/17 14:32:25;;;;;;;;;;;;;;;;;;5016867;28;7230;-68
2023/03/17 14:34:55;;;;;;;;;;;;;;;;;;5012761;28;7618;-68
2023/03/17 14:37:40;;;;;;;;;;;;;;;;;;5045405;28;6994;-68
2023/03/17 14:40:24;;;;;;;;;;;;;;;;;;5054498;28;7003;-68
2023/03/17 14:43:13;;;;;;;;;;;;;;;;;;5060323;28;7329;-68
2023/03/17 14:45:56;;;;;;;;;;;;;;;;;;5057254;28;7170;-68
2023/03/17 14:48:25;;;;;;;;;;;;;;;;;;5073904;28;7393;-68
2023/03/17 14:50:56;;;;;;;;;;;;;;;;;;5106341;22;7268;-68
2023/03/17 14:53:23;;;;;;;;;;;;;;;;;;5053991;28;6951;-70
2023/03/17 14:55:55;;;;;;;;;;;;;;;;;;5054265;28;6921;-70
2023/03/17 14:58:23;;;;;;;;;;;;;;;;;;5055574;28;7084;-70
2023/03/17 15:07:15;;;;;;;;;;;;;;;;;;5055358;28;6966;-70
2023/03/17 15:09:41;;;;;;;;;;;;;;;;;;5036727;28;7241;-70
2023/03/17 15:12:18;;;;;;;;;;;;;;;;;;5057517;28;7123;-70
2023/03/17 15:14:45;;;;;;;;;;;;;;;;;;5056728;28;7360;-70
2023/03/17 15:20:43;;;;;;;;;;;;;;;;;;5058137;28;7457;-70
2023/03/17 15:23:19;;;;;;;;;;;;;;;;;;5058462;28;7066;-70
2023/03/17 15:28:39;;;;;;;;;;;;;;;;;;5059049;28;7048;-70
2023/03/17 15:31:23;;;;;;;;;;;;;;;;;;5057233;28;6992;-70
2023/03/17 15:33:50;;;;;;;;;;;;;;;;;;5058407;28;7072;-70
2023/03/17 15:36:16;;;;;;;;;;;;;;;;;;5057750;28;7252;-70
2023/03/17 15:38:42;;;;;;;;;;;;;;;;;;5057121;28;7359;-70
2023/03/17 15:41:40;;;;;;;;;;;;;;;;;;5057269;28;7151;-70
2023/03/17 15:44:06;;;;;;;;;;;;;;;;;;5039699;28;6871;-70
2023/03/17 15:46:32;;;;;;;;;;;;;;;;;;5057510;28;7325;-70
2023/03/17 15:49:08;;;;;;;;;;;;;;;;;;5056925;28;7006;-70
2023/03/17 15:51:45;;;;;;;;;;;;;;;;;;5056725;28;7083;-70
2023/03/17 15:54:15;;;;;;;;;;;;;;;;;;5040262;28;7091;-70
2023/03/17 15:56:42;;;;;;;;;;;;;;;;;;5057437;28;7013;-70
2023/03/17 15:59:08;;;;;;;;;;;;;;;;;;5056916;28;6954;-70
2023/03/17 16:01:57;;;;;;;;;;;;;;;;;;5056892;28;6960;-70
2023/03/17 16:04:23;;;;;;;;;;;;;;;;;;5057912;28;7222;-70
2023/03/17 16:06:49;;;;;;;;;;;;;;;;;;5056911;28;7391;-70
2023/03/17 16:09:16;;;;;;;;;;;;;;;;;;5057815;28;7211;-70
2023/03/17 16:11:41;;;;;;;;;;;;;;;;;;5057233;28;7062;-70
2023/03/17 16:14:08;;;;;;;;;;;;;;;;;;5056687;28;6970;-70
2023/03/17 16:16:44;;;;;;;;;;;;;;;;;;5056490;28;7365;-70
2023/03/17 16:19:19;;;;;;;;;;;;;;;;;;5056573;28;7528;-70
2023/03/17 16:22:09;;;;;;;;;;;;;;;;;;5056754;28;7079;-70
2023/03/17 16:24:34;;;;;;;;;;;;;;;;;;5056868;28;7076;-70
2023/03/17 16:30:03;;;;;;;;;;;;;;;;;;5056464;28;7057;-70
2023/03/17 16:32:57;;;;;;;;;;;;;;;;;;5056352;28;6945;-70
2023/03/17 16:35:24;;;;;;;;;;;;;;;;;;5056115;28;7118;-70
2023/03/17 16:37:52;;;;;;;;;;;;;;;;;;5056862;28;6989;-70
2023/03/17 16:40:20;;;;;;;;;;;;;;;;;;5055752;28;7076;-70
2023/03/17 16:46:01;;;;;;;;;;;;;;;;;;5056937;28;6936;-70
2023/03/17 16:48:28;;;;;;;;;;;;;;;;;;5056820;28;6889;-70
2023/03/17 16:50:54;;;;;;;;;;;;;;;;;;5034661;28;7185;-70
2023/03/17 16:53:30;;;;;;;;;;;;;;;;;;5036388;28;7193;-70
2023/03/17 16:55:56;;;;;;;;;;;;;;;;;;5037638;28;7644;-70
2023/03/17 16:58:46;;;;;;;;;;;;;;;;;;5036310;28;6959;-70
2023/03/17 17:01:31;;;;;;;;;;;;;;;;;;5036626;28;6863;-70
2023/03/17 17:03:56;;;;;;;;;;;;;;;;;;5036603;28;6955;-70
2023/03/17 17:06:25;;;;;;;;;;;;;;;;;;5035769;28;7551;-70
2023/03/17 17:08:51;;;;;;;;;;;;;;;;;;5035659;28;7618;-70
2023/03/17 17:11:26;;;;;;;;;;;;;;;;;;5036427;28;7003;-70
2023/03/17 17:13:52;;;;;;;;;;;;;;;;;;5051390;28;7111;-70
2023/03/17 17:16:26;;;;;;;;;;;;;;;;;;5035197;28;7448;-70
2023/03/17 17:18:52;;;;;;;;;;;;;;;;;;5035484;28;7047;-70
2023/03/17 17:21:18;;;;;;;;;;;;;;;;;;5036267;28;7193;-70
2023/03/17 17:29:51;;;;;;;;;;;;;;;;;;5035735;28;7035;-70
2023/03/17 17:32:17;;;;;;;;;;;;;;;;;;5036870;28;7151;-70
2023/03/17 17:34:43;;;;;;;;;;;;;;;;;;5035344;28;6982;-70
2023/03/17 17:37:10;;;;;;;;;;;;;;;;;;5035436;28;6975;-70
2023/03/17 17:39:35;;;;;;;;;;;;;;;;;;5035437;28;6822;-73
2023/03/17 17:45:07;;;;;;;;;;;;;;;;;;5034733;28;6943;-73
2023/03/17 17:47:33;;;;;;;;;;;;;;;;;;5035093;28;7458;-73
2023/03/17 17:49:58;;;;;;;;;;;;;;;;;;5035783;28;7120;-73
2023/03/17 17:52:24;;;;;;;;;;;;;;;;;;5053712;28;7377;-73
2023/03/17 17:54:50;;;;;;;;;;;;;;;;;;5054782;28;6999;-73
2023/03/17 17:57:41;;;;;;;;;;;;;;;;;;5054659;28;7210;-73
2023/03/17 18:00:09;;;;;;;;;;;;;;;;;;5055972;28;6992;-73
2023/03/17 18:02:49;;;;;;;;;;;;;;;;;;5056119;28;8622;-72
2023/03/17 18:05:14;;;;;;;;;;;;;;;;;;5055989;28;7275;-72
2023/03/17 18:08:01;;;;;;;;;;;;;;;;;;5054736;28;7329;-72
2023/03/17 18:10:29;;;;;;;;;;;;;;;;;;5055981;28;7336;-72
2023/03/17 18:12:58;;;;;;;;;;;;;;;;;;5054979;28;7615;-72
2023/03/17 18:15:42;;;;;;;;;;;;;;;;;;5054673;28;7419;-72
2023/03/17 18:18:08;;;;;;;;;;;;;;;;;;5033593;28;6914;-72
2023/03/17 18:20:46;;;;;;;;;;;;;;;;;;5034810;28;7378;-72
2023/03/17 18:23:12;;;;;;;;;;;;;;;;;;5034241;28;6995;-72
2023/03/17 18:25:50;;;;;;;;;;;;;;;;;;5034928;28;7332;-72
2023/03/17 18:28:16;;;;;;;;;;;;;;;;;;5036117;28;6991;-72
2023/03/17 18:33:47;;;;;;;;;;;;;;;;;;5034585;28;7052;-72
2023/03/17 18:36:18;;;;;;;;;;;;;;;;;;5036113;28;7165;-71
2023/03/17 18:38:43;;;;;;;;;;;;;;;;;;5035374;28;7875;-72
2023/03/17 18:41:09;;;;;;;;;;;;;;;;;;5036367;28;6851;-72
2023/03/17 18:43:36;;;;;;;;;;;;;;;;;;5034782;28;7011;-72
2023/03/17 18:49:07;;;;;;;;;;;;;;;;;;5035947;28;6763;-72
2023/03/17 18:51:34;;;;;;;;;;;;;;;;;;5037982;28;7023;-72
2023/03/17 18:54:02;;;;;;;;;;;;;;;;;;5038764;28;7427;-72
2023/03/17 18:56:28;;;;;;;;;;;;;;;;;;5038813;28;7332;-72
2023/03/17 18:58:55;;;;;;;;;;;;;;;;;;5040596;28;7386;-72
2023/03/17 19:01:21;;;;;;;;;;;;;;;;;;5038863;28;6988;-72
2023/03/17 19:03:47;;;;;;;;;;;;;;;;;;5039863;28;6959;-72
2023/03/17 19:09:15;;;;;;;;;;;;;;;;;;5037624;28;6994;-72
2023/03/17 19:11:41;;;;;;;;;;;;;;;;;;5039245;28;7164;-72
2023/03/17 19:14:20;;;;;;;;;;;;;;;;;;5038625;28;7388;-72
2023/03/17 19:16:46;;;;;;;;;;;;;;;;;;5037665;28;7070;-72
2023/03/17 19:19:11;;;;;;;;;;;;;;;;;;5039383;28;7108;-72
2023/03/17 19:21:50;;;;;;;;;;;;;;;;;;5037684;28;7168;-72
2023/03/17 19:24:15;;;;;;;;;;;;;;;;;;5039402;28;7123;-72
2023/03/17 19:29:44;;;;;;;;;;;;;;;;;;5038859;28;6912;-72
2023/03/17 19:32:11;;;;;;;;;;;;;;;;;;5040370;28;6940;-72
2023/03/17 19:34:49;;;;;;;;;;;;;;;;;;5037888;28;7188;-72
2023/03/17 19:37:15;;;;;;;;;;;;;;;;;;5038333;28;7184;-72
2023/03/17 19:39:43;;;;;;;;;;;;;;;;;;5037405;28;7038;-71
2023/03/17 19:42:18;;;;;;;;;;;;;;;;;;5037405;28;7161;-72
2023/03/17 19:44:44;;;;;;;;;;;;;;;;;;5038993;28;6986;-72
2023/03/17 19:47:10;;;;;;;;;;;;;;;;;;5038692;28;6976;-72
2023/03/17 19:49:57;;;;;;;;;;;;;;;;;;5039864;28;7224;-74
2023/03/17 19:52:22;;;;;;;;;;;;;;;;;;5036712;28;7219;-71
2023/03/17 19:55:08;;;;;;;;;;;;;;;;;;5037156;28;7201;-71
2023/03/17 19:57:34;;;;;;;;;;;;;;;;;;5037025;28;7180;-71
2023/03/17 20:00:21;;;;;;;;;;;;;;;;;;5037545;28;7064;-71
2023/03/17 20:02:47;;;;;;;;;;;;;;;;;;5037552;28;7439;-71
2023/03/17 20:05:13;;;;;;;;;;;;;;;;;;5038169;28;7804;-71
2023/03/17 20:07:46;;;;;;;;;;;;;;;;;;5038697;28;7261;-71
2023/03/17 20:10:12;;;;;;;;;;;;;;;;;;5037609;28;6940;-71
2023/03/17 20:12:37;;;;;;;;;;;;;;;;;;5039457;28;7390;-71
2023/03/17 20:18:10;;;;;;;;;;;;;;;;;;5037796;28;6967;-71
2023/03/17 20:20:36;;;;;;;;;;;;;;;;;;5037596;28;7433;-71
2023/03/17 20:23:03;;;;;;;;;;;;;;;;;;5036296;28;7806;-71
2023/03/17 20:25:29;;;;;;;;;;;;;;;;;;5037158;28;7230;-71
2023/03/17 20:28:05;;;;;;;;;;;;;;;;;;5038128;28;7133;-71
2023/03/17 20:30:31;;;;;;;;;;;;;;;;;;5037501;28;6919;-71
2023/03/17 20:32:56;;;;;;;;;;;;;;;;;;5037808;28;7165;-71